createdAt,value
2017-10-23T00:01:06.353Z,2.33
2017-10-23T00:03:34.620Z,2.23
2017-10-23T00:06:02.100Z,2.30
2017-10-23T00:08:29.596Z,2.10
2017-10-23T00:10:57.839Z,1.63
2017-10-23T00:13:25.328Z,2.13
2017-10-23T00:15:52.804Z,1.97
2017-10-23T00:18:20.301Z,2.00
2017-10-23T00:20:47.772Z,1.77
2017-10-23T00:23:15.276Z,2.20
2017-10-23T00:25:42.760Z,2.03
2017-10-23T00:28:10.256Z,2.13
2017-10-23T00:30:37.733Z,2.10
2017-10-23T00:33:05.998Z,1.93
2017-10-23T00:35:33.468Z,2.20
2017-10-23T00:38:00.971Z,1.73
2017-10-23T00:40:28.456Z,2.97
2017-10-23T00:42:55.966Z,3.13
2017-10-23T00:45:23.436Z,2.27
2017-10-23T00:47:50.937Z,2.77
2017-10-23T00:50:19.185Z,1.80
2017-10-23T00:52:46.683Z,2.57
2017-10-23T00:55:14.155Z,2.10
2017-10-23T00:57:41.681Z,2.47
2017-10-23T01:00:09.221Z,2.37
2017-10-23T01:02:36.736Z,2.37
2017-10-23T01:05:04.211Z,2.03
2017-10-23T01:07:31.713Z,2.23
2017-10-23T01:09:59.194Z,2.93
2017-10-23T01:12:27.456Z,2.13
2017-10-23T01:14:54.924Z,2.30
2017-10-23T01:17:22.424Z,2.07
2017-10-23T01:19:50.659Z,1.90
2017-10-23T01:22:18.157Z,2.13
2017-10-23T01:24:45.631Z,2.30
2017-10-23T01:27:13.133Z,3.10
2017-10-23T01:29:40.612Z,1.87
2017-10-23T01:32:08.119Z,2.03
2017-10-23T01:34:35.596Z,2.87
2017-10-23T01:37:03.088Z,2.40
2017-10-23T01:39:30.564Z,2.50
2017-10-23T01:41:58.820Z,2.00
2017-10-23T01:44:26.308Z,2.37
2017-10-23T01:46:53.804Z,2.70
2017-10-23T01:49:22.040Z,2.90
2017-10-23T01:51:49.504Z,2.40
2017-10-23T01:54:16.991Z,2.33
2017-10-23T01:56:44.459Z,2.17
2017-10-23T01:59:11.951Z,2.40
2017-10-23T02:01:39.428Z,2.60
2017-10-23T02:04:07.693Z,2.80
2017-10-23T02:06:37.295Z,2.37
2017-10-23T02:09:04.873Z,2.33
2017-10-23T02:11:32.358Z,2.97
2017-10-23T02:13:59.870Z,2.70
2017-10-23T02:16:27.341Z,3.23
2017-10-23T02:18:54.833Z,3.77
2017-10-23T02:21:22.304Z,3.00
2017-10-23T02:23:49.797Z,2.73
2017-10-23T02:26:17.276Z,2.90
2017-10-23T02:28:44.759Z,2.80
2017-10-23T02:31:13.001Z,3.57
2017-10-23T02:33:40.508Z,2.73
2017-10-23T02:36:07.984Z,3.00
2017-10-23T02:38:35.481Z,3.00
2017-10-23T02:41:03.725Z,5.00
2017-10-23T02:43:31.225Z,2.83
2017-10-23T02:45:59.472Z,3.37
2017-10-23T02:48:26.959Z,4.20
2017-10-23T02:50:54.443Z,3.03
2017-10-23T02:53:21.936Z,3.90
2017-10-23T02:55:50.172Z,2.90
2017-10-23T02:58:17.656Z,2.80
2017-10-23T03:00:45.133Z,3.13
2017-10-23T03:03:12.641Z,3.27
2017-10-23T03:05:40.116Z,3.67
2017-10-23T03:08:07.618Z,3.40
2017-10-23T03:10:35.088Z,2.97
2017-10-23T03:13:02.592Z,2.90
2017-10-23T03:15:30.064Z,3.37
2017-10-23T03:18:00.764Z,3.23
2017-10-23T03:20:28.248Z,3.53
2017-10-23T03:22:55.744Z,2.83
2017-10-23T03:25:23.213Z,3.23
2017-10-23T03:27:50.713Z,2.83
2017-10-23T03:30:18.191Z,3.73
2017-10-23T03:32:45.694Z,3.30
2017-10-23T03:35:13.980Z,2.60
2017-10-23T03:37:41.505Z,2.40
2017-10-23T03:40:09.741Z,3.00
2017-10-23T03:42:37.236Z,3.03
2017-10-23T03:45:04.708Z,2.30
2017-10-23T03:47:32.204Z,2.97
2017-10-23T03:49:59.676Z,2.90
2017-10-23T03:52:27.176Z,2.43
2017-10-23T03:54:54.651Z,3.17
2017-10-23T03:57:22.904Z,2.50
2017-10-23T03:59:51.145Z,2.87
2017-10-23T04:02:18.615Z,2.27
2017-10-23T04:04:46.112Z,2.63
2017-10-23T04:07:14.356Z,2.20
2017-10-23T04:09:41.859Z,2.00
2017-10-23T04:12:09.340Z,1.83
2017-10-23T04:14:37.595Z,2.23
2017-10-23T04:17:05.073Z,2.60
2017-10-23T04:19:32.559Z,2.30
2017-10-23T04:22:00.031Z,2.50
2017-10-23T04:24:27.524Z,2.20
2017-10-23T04:26:55.760Z,2.67
2017-10-23T04:29:23.252Z,3.07
2017-10-23T04:31:50.728Z,2.67
2017-10-23T04:34:19.000Z,2.47
2017-10-23T04:36:46.472Z,2.40
2017-10-23T04:39:13.960Z,3.20
2017-10-23T04:41:42.203Z,2.60
2017-10-23T04:44:09.700Z,2.73
2017-10-23T04:46:37.184Z,3.20
2017-10-23T04:49:04.724Z,2.70
2017-10-23T04:51:32.204Z,2.67
2017-10-23T04:53:59.701Z,2.80
2017-10-23T04:56:27.937Z,2.53
2017-10-23T04:58:55.424Z,3.20
2017-10-23T05:01:22.901Z,3.20
2017-10-23T05:03:50.392Z,3.50
2017-10-23T05:06:17.860Z,3.30
2017-10-23T05:08:45.356Z,3.33
2017-10-23T05:11:12.831Z,3.27
2017-10-23T05:13:40.341Z,2.90
2017-10-23T05:16:07.814Z,2.70
2017-10-23T05:18:35.303Z,2.53
2017-10-23T05:21:02.779Z,2.60
2017-10-23T05:23:30.268Z,3.10
2017-10-23T05:25:58.516Z,5.63
2017-10-23T05:28:26.009Z,4.37
2017-10-23T05:30:53.495Z,3.87
2017-10-23T05:33:21.751Z,3.77
2017-10-23T05:35:49.225Z,3.90
2017-10-23T05:38:16.727Z,8.83
2017-10-23T05:40:44.983Z,4.10
2017-10-23T05:43:12.461Z,11.00
2017-10-23T05:45:39.965Z,15.03
2017-10-23T05:48:07.448Z,9.37
2017-10-23T05:50:34.961Z,3.80
2017-10-23T05:53:02.432Z,5.57
2017-10-23T05:55:29.913Z,3.20
2017-10-23T05:57:58.176Z,3.80
2017-10-23T06:00:25.651Z,4.13
2017-10-23T06:02:53.153Z,4.30
2017-10-23T06:05:21.399Z,14.47
2017-10-23T06:07:48.895Z,27.10
2017-10-23T06:10:16.376Z,14.27
2017-10-23T06:12:44.640Z,13.20
2017-10-23T06:15:14.116Z,7.90
2017-10-23T06:17:41.612Z,8.00
2017-10-23T06:20:09.089Z,10.60
2017-10-23T06:22:36.593Z,10.10
2017-10-23T06:25:04.834Z,5.07
2017-10-23T06:27:32.333Z,4.00
2017-10-23T06:29:59.808Z,5.00
2017-10-23T06:32:27.313Z,4.83
2017-10-23T06:34:54.788Z,4.60
2017-10-23T06:37:22.285Z,5.60
2017-10-23T06:39:49.759Z,4.60
2017-10-23T06:42:17.261Z,4.30
2017-10-23T06:44:44.744Z,5.10
2017-10-23T06:47:13.017Z,4.97
2017-10-23T06:49:40.492Z,4.27
2017-10-23T06:52:07.985Z,4.37
2017-10-23T06:54:35.456Z,3.90
2017-10-23T06:57:02.945Z,4.13
2017-10-23T06:59:30.428Z,4.63
2017-10-23T07:01:57.928Z,4.10
2017-10-23T07:04:25.401Z,3.77
2017-10-23T07:06:52.900Z,4.27
2017-10-23T07:09:21.140Z,5.47
2017-10-23T07:11:48.632Z,3.50
2017-10-23T07:14:16.101Z,4.20
2017-10-23T07:16:44.374Z,4.93
2017-10-23T07:19:11.856Z,5.57
2017-10-23T07:21:39.356Z,3.60
2017-10-23T07:24:06.832Z,3.60
2017-10-23T07:26:34.304Z,4.00
2017-10-23T07:29:01.796Z,4.03
2017-10-23T07:31:29.267Z,4.33
2017-10-23T07:33:56.759Z,3.90
2017-10-23T07:36:24.232Z,4.37
2017-10-23T07:38:51.724Z,3.80
2017-10-23T07:41:19.196Z,4.70
2017-10-23T07:43:46.688Z,4.50
2017-10-23T07:46:14.168Z,4.77
2017-10-23T07:48:41.674Z,7.73
2017-10-23T07:51:10.079Z,8.60
2017-10-23T07:53:37.567Z,4.37
2017-10-23T07:56:05.817Z,4.60
2017-10-23T07:58:33.319Z,4.23
2017-10-23T08:01:00.800Z,4.43
2017-10-23T08:03:29.054Z,3.90
2017-10-23T08:05:56.536Z,4.90
2017-10-23T08:08:24.036Z,4.67
2017-10-23T08:10:52.285Z,3.30
2017-10-23T08:13:19.778Z,3.57
2017-10-23T08:15:47.280Z,3.73
2017-10-23T08:18:14.781Z,3.33
2017-10-23T08:20:42.259Z,3.67
2017-10-23T08:23:09.760Z,3.57
2017-10-23T08:25:37.233Z,3.30
2017-10-23T08:28:04.747Z,4.10
2017-10-23T08:30:32.233Z,5.30
2017-10-23T08:32:59.731Z,5.50
2017-10-23T08:35:27.212Z,5.73
2017-10-23T08:37:55.476Z,5.20
2017-10-23T08:40:22.951Z,6.17
2017-10-23T08:42:50.446Z,5.80
2017-10-23T08:45:18.688Z,5.30
2017-10-23T08:47:46.196Z,5.70
2017-10-23T08:50:14.440Z,6.20
2017-10-23T08:52:41.940Z,5.60
2017-10-23T08:55:09.427Z,5.50
2017-10-23T08:57:37.712Z,5.37
2017-10-23T09:00:05.187Z,5.10
2017-10-23T09:02:33.436Z,5.03
2017-10-23T09:05:00.932Z,5.13
2017-10-23T09:07:28.411Z,12.67
2017-10-23T09:09:56.689Z,7.23
2017-10-23T09:12:24.171Z,4.23
2017-10-23T09:14:52.439Z,3.63
2017-10-23T09:17:19.916Z,3.77
2017-10-23T09:19:47.416Z,3.63
2017-10-23T09:22:14.893Z,3.30
2017-10-23T09:24:42.384Z,3.27
2017-10-23T09:27:09.864Z,3.57
2017-10-23T09:29:37.368Z,4.10
2017-10-23T09:32:04.851Z,6.67
2017-10-23T09:34:33.117Z,3.37
2017-10-23T09:37:00.731Z,2.47
2017-10-23T09:39:28.223Z,3.47
2017-10-23T09:41:55.696Z,3.20
2017-10-23T09:44:23.196Z,2.80
2017-10-23T09:46:50.674Z,2.77
2017-10-23T09:49:18.185Z,3.03
2017-10-23T09:51:45.664Z,3.20
2017-10-23T09:54:13.177Z,2.47
2017-10-23T09:56:40.665Z,3.27
2017-10-23T09:59:08.161Z,2.07
2017-10-23T10:01:35.637Z,2.77
2017-10-23T10:04:03.132Z,2.00
2017-10-23T10:06:30.620Z,2.37
2017-10-23T10:08:58.142Z,1.93
2017-10-23T10:11:25.628Z,2.07
2017-10-23T10:13:53.120Z,1.83
2017-10-23T10:16:20.657Z,2.33
2017-10-23T10:18:48.128Z,2.40
2017-10-23T10:21:15.620Z,2.20
2017-10-23T10:23:43.096Z,2.17
2017-10-23T10:26:10.587Z,2.33
2017-10-23T10:28:38.059Z,2.10
2017-10-23T10:31:05.556Z,2.03
2017-10-23T10:33:33.807Z,2.60
2017-10-23T10:36:01.308Z,1.80
2017-10-23T10:38:29.621Z,2.00
2017-10-23T10:40:57.119Z,1.90
2017-10-23T10:43:24.605Z,1.93
2017-10-23T10:45:52.103Z,2.10
2017-10-23T10:48:20.365Z,2.07
2017-10-23T10:50:47.868Z,2.03
2017-10-23T10:53:16.107Z,2.57
2017-10-23T10:55:43.608Z,2.07
2017-10-23T10:58:11.079Z,1.73
2017-10-23T11:00:38.588Z,2.00
2017-10-23T11:03:06.067Z,2.37
2017-10-23T11:05:33.568Z,1.87
2017-10-23T11:08:01.049Z,2.00
2017-10-23T11:10:28.565Z,2.50
2017-10-23T11:12:56.048Z,1.80
2017-10-23T11:15:23.544Z,2.10
2017-10-23T11:17:51.024Z,2.10
2017-10-23T11:20:18.529Z,1.97
2017-10-23T11:22:46.779Z,2.23
2017-10-23T11:25:14.276Z,1.70
2017-10-23T11:27:41.759Z,1.50
2017-10-23T11:30:10.028Z,1.77
2017-10-23T11:32:37.504Z,1.60
2017-10-23T11:35:05.005Z,1.73
2017-10-23T11:37:32.486Z,1.60
2017-10-23T11:40:00.021Z,1.77
2017-10-23T11:42:28.266Z,2.00
2017-10-23T11:44:55.744Z,1.70
2017-10-23T11:47:23.242Z,1.60
2017-10-23T11:49:50.717Z,1.20
2017-10-23T11:52:18.984Z,1.33
2017-10-23T11:54:46.464Z,1.40
2017-10-23T11:57:13.968Z,1.47
2017-10-23T11:59:41.444Z,1.23
2017-10-23T12:02:08.944Z,1.40
2017-10-23T12:04:36.433Z,1.50
2017-10-23T12:07:03.936Z,1.47
2017-10-23T12:09:32.188Z,1.77
2017-10-23T12:11:59.680Z,2.37
2017-10-23T12:14:27.159Z,1.27
2017-10-23T12:16:55.419Z,1.70
2017-10-23T12:19:22.896Z,1.40
2017-10-23T12:21:50.391Z,1.67
2017-10-23T12:24:18.637Z,1.40
2017-10-23T12:26:46.141Z,1.53
2017-10-23T12:29:14.388Z,1.40
2017-10-23T12:31:41.898Z,1.80
2017-10-23T12:34:10.145Z,1.33
2017-10-23T12:36:37.641Z,1.70
2017-10-23T12:39:05.120Z,1.60
2017-10-23T12:41:32.616Z,1.60
2017-10-23T12:44:00.101Z,2.20
2017-10-23T12:46:27.632Z,1.80
2017-10-23T12:48:55.104Z,2.03
2017-10-23T12:51:22.592Z,3.07
2017-10-23T12:53:50.832Z,8.00
2017-10-23T12:56:18.327Z,1.93
2017-10-23T12:58:45.811Z,1.57
2017-10-23T13:01:14.068Z,1.27
2017-10-23T13:03:41.544Z,1.90
2017-10-23T13:06:09.062Z,2.07
2017-10-23T13:08:36.544Z,1.40
2017-10-23T13:11:04.023Z,2.20
2017-10-23T13:13:31.518Z,4.70
2017-10-23T13:15:58.996Z,1.47
2017-10-23T13:18:26.495Z,2.33
2017-10-23T13:20:54.735Z,1.90
2017-10-23T13:23:22.232Z,1.57
2017-10-23T13:25:49.712Z,1.50
2017-10-23T13:28:17.980Z,1.90
2017-10-23T13:30:45.455Z,1.43
2017-10-23T13:33:12.951Z,1.70
2017-10-23T13:35:41.191Z,1.23
2017-10-23T13:38:08.684Z,1.50
2017-10-23T13:40:36.155Z,1.40
2017-10-23T13:43:03.647Z,2.10
2017-10-23T13:45:31.893Z,1.43
2017-10-23T13:47:59.392Z,1.43
2017-10-23T13:50:27.635Z,1.40
2017-10-23T13:52:55.128Z,1.40
2017-10-23T13:55:22.600Z,1.60
2017-10-23T13:57:50.096Z,1.87
2017-10-23T14:00:18.344Z,1.57
2017-10-23T14:02:45.841Z,1.70
2017-10-23T14:05:14.092Z,1.60
2017-10-23T14:07:41.630Z,1.80
2017-10-23T14:10:09.110Z,1.67
2017-10-23T14:12:36.616Z,1.50
2017-10-23T14:15:04.093Z,1.20
2017-10-23T14:17:31.601Z,2.10
2017-10-23T14:19:59.880Z,1.10
2017-10-23T14:22:28.185Z,1.70
2017-10-23T14:24:55.668Z,1.37
2017-10-23T14:27:23.164Z,1.70
2017-10-23T14:29:50.654Z,1.73
2017-10-23T14:32:18.169Z,1.57
2017-10-23T14:34:45.655Z,1.70
2017-10-23T14:37:13.895Z,1.27
2017-10-23T14:39:42.156Z,1.60
2017-10-23T14:42:09.640Z,1.87
2017-10-23T14:44:37.140Z,1.80
2017-10-23T14:47:05.388Z,1.67
2017-10-23T14:49:32.889Z,1.40
2017-10-23T14:52:01.136Z,1.93
2017-10-23T14:54:28.631Z,1.50
2017-10-23T14:56:56.112Z,1.20
2017-10-23T14:59:24.372Z,1.33
2017-10-23T15:01:51.852Z,1.80
2017-10-23T15:04:19.362Z,3.80
2017-10-23T15:06:46.840Z,2.43
2017-10-23T15:09:14.335Z,2.30
2017-10-23T15:11:41.816Z,2.10
2017-10-23T15:14:09.312Z,2.00
2017-10-23T15:16:36.803Z,1.87
2017-10-23T15:19:04.305Z,1.83
2017-10-23T15:21:31.776Z,1.93
2017-10-23T15:23:59.269Z,1.67
2017-10-23T15:26:26.770Z,1.47
2017-10-23T15:28:55.032Z,2.90
2017-10-23T15:31:22.508Z,1.90
2017-10-23T15:33:50.000Z,1.90
2017-10-23T15:36:18.244Z,1.73
2017-10-23T15:38:45.741Z,2.00
2017-10-23T15:41:13.992Z,1.70
2017-10-23T15:43:41.498Z,1.40
2017-10-23T15:46:09.764Z,2.43
2017-10-23T15:48:37.260Z,1.70
2017-10-23T15:51:04.737Z,1.87
2017-10-23T15:53:33.000Z,1.93
2017-10-23T15:56:00.481Z,1.90
2017-10-23T15:58:27.980Z,2.13
2017-10-23T16:00:56.225Z,2.40
2017-10-23T16:03:23.700Z,2.30
2017-10-23T16:05:51.195Z,2.10
2017-10-23T16:08:19.448Z,2.73
2017-10-23T16:10:46.949Z,2.80
2017-10-23T16:13:14.432Z,2.53
2017-10-23T16:15:42.696Z,2.63
2017-10-23T16:18:10.172Z,2.90
2017-10-23T16:20:37.671Z,2.43
2017-10-23T16:23:05.149Z,2.77
2017-10-23T16:25:32.658Z,2.30
2017-10-23T16:28:00.140Z,2.60
2017-10-23T16:30:27.646Z,3.00
2017-10-23T16:32:55.123Z,2.40
2017-10-23T16:35:22.624Z,2.17
2017-10-23T16:37:50.863Z,2.60
2017-10-23T16:40:19.125Z,2.40
2017-10-23T16:42:46.604Z,2.57
2017-10-23T16:45:14.104Z,2.60
2017-10-23T16:47:42.348Z,2.50
2017-10-23T16:50:09.847Z,2.70
2017-10-23T16:52:38.090Z,3.07
2017-10-23T16:55:05.595Z,3.10
2017-10-23T16:57:33.072Z,3.27
2017-10-23T17:00:00.568Z,3.20
2017-10-23T17:02:28.052Z,3.17
2017-10-23T17:04:55.561Z,8.20
2017-10-23T17:07:23.039Z,8.10
2017-10-23T17:09:50.540Z,8.93
2017-10-23T17:12:18.788Z,7.83
2017-10-23T17:14:46.304Z,5.80
2017-10-23T17:17:13.806Z,5.03
2017-10-23T17:19:41.308Z,5.50
2017-10-23T17:22:08.787Z,5.10
2017-10-23T17:24:36.289Z,5.60
2017-10-23T17:27:03.767Z,5.37
2017-10-23T17:29:31.248Z,3.70
2017-10-23T17:31:58.744Z,3.30
2017-10-23T17:34:26.219Z,3.90
2017-10-23T17:36:53.717Z,3.30
2017-10-23T17:39:21.963Z,3.33
2017-10-23T17:41:49.456Z,3.60
2017-10-23T17:44:16.940Z,3.53
2017-10-23T17:46:45.205Z,3.30
2017-10-23T17:49:12.689Z,40.30
2017-10-23T17:51:40.188Z,4.83
2017-10-23T17:54:07.664Z,3.07
2017-10-23T17:56:35.998Z,2.70
2017-10-23T17:59:03.480Z,3.03
2017-10-23T18:01:30.980Z,3.30
2017-10-23T18:03:59.225Z,2.80
2017-10-23T18:06:26.720Z,3.10
2017-10-23T18:08:54.203Z,3.10
2017-10-23T18:11:22.477Z,3.20
2017-10-23T18:13:49.972Z,3.93
2017-10-23T18:16:17.480Z,3.50
2017-10-23T18:18:44.966Z,3.60
2017-10-23T18:21:12.474Z,4.60
2017-10-23T18:23:40.724Z,4.07
2017-10-23T18:26:08.221Z,3.53
2017-10-23T18:28:36.472Z,2.90
2017-10-23T18:31:03.989Z,4.70
2017-10-23T18:36:22.681Z,3.07
2017-10-23T18:38:50.923Z,3.23
2017-10-23T18:41:18.433Z,3.20
2017-10-23T18:43:46.685Z,3.73
2017-10-23T18:46:14.184Z,3.33
2017-10-23T18:48:41.676Z,3.93
2017-10-23T18:51:09.946Z,4.63
2017-10-23T18:53:38.212Z,4.57
2017-10-23T18:56:05.714Z,4.93
2017-10-23T18:58:33.974Z,6.47
2017-10-23T19:01:01.929Z,5.80
2017-10-23T19:03:29.485Z,6.10
2017-10-23T19:05:57.004Z,8.67
2017-10-23T19:08:24.518Z,6.57
2017-10-23T19:10:52.020Z,7.20
2017-10-23T19:13:19.495Z,6.67
2017-10-23T19:15:47.004Z,7.70
2017-10-23T19:18:15.264Z,14.23
2017-10-23T19:20:42.772Z,11.80
2017-10-23T19:23:11.024Z,6.03
2017-10-23T19:25:38.532Z,5.73
2017-10-23T19:28:06.809Z,4.87
2017-10-23T19:30:35.081Z,4.60
2017-10-23T19:33:02.564Z,5.57
2017-10-23T19:35:30.065Z,4.40
2017-10-23T19:37:57.549Z,4.93
2017-10-23T19:40:25.084Z,4.50
2017-10-23T19:42:53.373Z,5.37
2017-10-23T19:45:21.642Z,4.57
2017-10-23T19:47:49.135Z,4.57
2017-10-23T19:50:17.399Z,4.40
2017-10-23T19:52:44.881Z,3.80
2017-10-23T19:55:12.401Z,4.00
2017-10-23T19:57:39.881Z,4.53
2017-10-23T20:00:07.364Z,4.30
2017-10-23T20:02:34.864Z,4.20
2017-10-23T20:05:02.340Z,3.53
2017-10-23T20:07:30.607Z,4.30
2017-10-23T20:09:58.094Z,4.70
2017-10-23T20:12:26.369Z,4.70
2017-10-23T20:14:53.848Z,5.63
2017-10-23T20:17:22.165Z,5.70
2017-10-23T20:19:49.645Z,5.63
2017-10-23T20:22:17.144Z,5.17
2017-10-23T20:24:44.621Z,5.17
2017-10-23T20:27:12.146Z,5.53
2017-10-23T20:29:39.646Z,5.57
2017-10-23T20:32:07.145Z,5.27
2017-10-23T20:34:34.640Z,6.00
2017-10-23T20:37:02.906Z,6.13
2017-10-23T20:39:30.404Z,6.97
2017-10-23T20:41:58.667Z,5.50
2017-10-23T20:44:26.148Z,6.20
2017-10-23T20:46:53.645Z,7.37
2017-10-23T20:49:22.059Z,11.90
2017-10-23T20:51:49.571Z,13.23
2017-10-23T20:54:17.060Z,10.17
2017-10-23T20:56:45.352Z,8.37
2017-10-23T20:59:12.832Z,6.30
2017-10-23T21:01:40.325Z,7.70
2017-10-23T21:04:07.833Z,6.07
2017-10-23T21:06:35.325Z,8.07
2017-10-23T21:09:03.587Z,7.43
2017-10-23T21:11:31.068Z,11.70
2017-10-23T21:13:58.560Z,5.80
2017-10-23T21:16:26.804Z,6.20
2017-10-23T21:18:54.312Z,6.30
2017-10-23T21:21:22.556Z,6.47
2017-10-23T21:23:50.055Z,7.00
2017-10-23T21:26:17.537Z,7.10
2017-10-23T21:28:45.808Z,7.33
2017-10-23T21:31:13.287Z,8.20
2017-10-23T21:33:40.780Z,6.60
2017-10-23T21:36:08.265Z,7.37
2017-10-23T21:38:35.776Z,7.00
2017-10-23T21:41:03.246Z,7.60
2017-10-23T21:43:30.739Z,9.37
2017-10-23T21:45:58.220Z,7.57
2017-10-23T21:48:25.712Z,7.37
2017-10-23T21:50:53.191Z,7.37
2017-10-23T21:53:20.668Z,7.73
2017-10-23T21:55:48.165Z,7.87
2017-10-23T21:58:15.639Z,8.30
2017-10-23T22:00:43.132Z,7.77
2017-10-23T22:03:11.382Z,9.20
2017-10-23T22:05:40.326Z,8.43
2017-10-23T22:08:07.827Z,7.43
2017-10-23T22:10:35.324Z,7.37
2017-10-23T22:13:02.803Z,8.37
2017-10-23T22:15:30.299Z,9.27
2017-10-23T22:17:57.771Z,8.53
2017-10-23T22:20:26.036Z,8.07
2017-10-23T22:22:53.512Z,9.10
2017-10-23T22:25:21.013Z,9.30
2017-10-23T22:27:48.500Z,8.73
2017-10-23T22:30:16.012Z,8.20
2017-10-23T22:32:43.495Z,9.40
2017-10-23T22:35:10.994Z,8.40
2017-10-23T22:37:39.247Z,9.40
2017-10-23T22:40:06.747Z,9.90
2017-10-23T22:42:34.996Z,10.03
2017-10-23T22:45:02.504Z,10.60
2017-10-23T22:47:29.980Z,9.43
2017-10-23T22:49:58.248Z,10.17
2017-10-23T22:52:25.731Z,9.70
2017-10-23T22:54:53.211Z,9.73
2017-10-23T22:57:20.708Z,9.23
2017-10-23T22:59:48.198Z,11.07
2017-10-23T23:02:15.703Z,11.50
2017-10-23T23:04:43.956Z,10.53
2017-10-23T23:07:11.455Z,10.67
2017-10-23T23:09:38.939Z,11.10
2017-10-23T23:12:07.217Z,11.10
2017-10-23T23:14:34.705Z,10.83
2017-10-23T23:17:02.221Z,11.23
2017-10-23T23:19:29.703Z,12.13
2017-10-23T23:21:57.212Z,12.00
2017-10-23T23:24:25.472Z,12.60
2017-10-23T23:26:52.980Z,13.20
2017-10-23T23:29:20.469Z,13.07
2017-10-23T23:31:47.980Z,12.17
2017-10-23T23:34:15.464Z,13.80
2017-10-23T23:36:42.964Z,12.57
2017-10-23T23:39:10.452Z,11.70
2017-10-23T23:41:37.959Z,11.70
2017-10-23T23:44:05.450Z,14.23
2017-10-23T23:46:33.719Z,12.23
2017-10-23T23:49:01.200Z,11.37
2017-10-23T23:51:28.708Z,12.23
2017-10-23T23:53:56.198Z,13.93
2017-10-23T23:56:24.471Z,13.10
2017-10-23T23:58:52.378Z,13.00
